Latest Weather Observations for Wyndham Airport

IDD60801

Issued at 1:05 pm CST Saturday 25 October 2014 (issued every 30 minutes, with the page automatically refreshed every 10 minutes)

About weather observations | Map of weather stations | Latest weather observations for NT | Other Formats
Station Details ID: 001006 Name: WYNDHAM AERO Lat: -15.51 Lon: 128.15 Height: 3.8 m
Data from the previous 72 hours. | See also: Recent months for locations in Northern Territory
Date/Time
CST
Temp
°C
App
Temp
°C
Dew
Point
Rel
Hum
%
Delta-T
°C
Wind Press
QNH
hPa
Press
MSL
hPa
Rain
since 9 am
mm
Dir
 
Spd
km/h
Gust
km/h
Spd
kts
Gust
kts
25/01:00pm 36.8 35.9 16.9 31 12.8 N 17 28 9 15 1011.8 1011.8 0.0
25/12:30pm 35.8 37.3 17.5 34 11.8 SE 6 9 3 5 1012.5 1012.5 0.0
25/12:00pm 36.7 37.6 19.2 36 11.6 NNE 13 22 7 12 1012.8 1012.8 0.0
25/11:30am 35.3 36.0 18.8 37 10.8 NE 13 20 7 11 1013.3 1013.3 0.0
25/11:00am 34.4 35.3 20.0 42 9.6 NNE 15 24 8 13 1013.7 1013.7 0.0
25/10:30am 33.6 34.7 20.4 46 8.8 N 15 22 8 12 1014.1 1014.1 0.0
25/10:00am 33.3 35.5 20.4 46 8.6 NE 9 15 5 8 1014.5 1014.5 0.0
25/09:30am 32.1 33.9 20.4 50 7.8 N 11 17 6 9 1014.7 1014.7 0.0
25/09:00am 31.4 33.6 20.4 52 7.3 NNW 9 15 5 8 1014.9 1014.9 0.0
25/08:30am 30.8 31.9 20.4 54 6.9 N 15 20 8 11 1014.7 1014.7 0.0
25/08:00am 30.0 31.0 20.3 56 6.4 N 15 20 8 11 1014.8 1014.8 0.0
25/07:30am 29.3 30.6 20.2 58 6.0 N 13 17 7 9 1014.5 1014.5 0.0
25/07:00am 28.6 30.0 20.3 60 5.5 NE 13 19 7 10 1014.3 1014.3 0.0
25/06:30am 27.0 29.3 19.9 65 4.6 NNE 7 13 4 7 1013.4 1013.4 0.0
25/06:00am 27.8 28.6 19.8 61 5.2 W 15 17 8 9 1012.2 1012.2 0.0
25/05:30am 26.3 28.5 19.2 65 4.6 NNW 6 9 3 5 1012.3 1012.3 0.0
25/05:00am 26.1 28.0 19.0 65 4.5 W 7 9 4 5 1011.6 1011.6 0.0
25/04:30am 27.1 29.0 19.7 64 4.8 W 9 11 5 6 1011.3 1011.3 0.0
25/04:00am 26.8 28.1 18.4 60 5.3 WNW 9 11 5 6 1011.1 1011.1 0.0
25/03:30am 28.2 29.4 20.0 61 5.4 W 13 15 7 8 1011.0 1011.0 0.0
25/03:00am 27.7 29.3 19.2 60 5.5 WNW 9 11 5 6 1011.2 1011.2 0.0
25/02:30am 28.8 30.0 20.0 59 5.8 W 13 15 7 8 1011.4 1011.4 0.0
25/02:00am 28.9 30.2 20.1 59 5.8 WSW 13 17 7 9 1011.5 1011.5 0.0
25/01:30am 29.3 30.3 20.2 58 6.0 WSW 15 19 8 10 1011.6 1011.6 0.0
25/01:00am 29.5 29.6 20.4 58 6.0 WSW 20 24 11 13 1011.8 1011.8 0.0
25/12:30am 29.8 30.5 20.4 57 6.2 WSW 17 22 9 12 1011.9 1011.9 0.0
25/12:00am 29.4 31.8 21.6 63 5.2 W 11 13 6 7 1011.7 1011.7 0.0
 
Date/Time
CST
Temp
°C
App
Temp
°C
Dew
Point
Rel
Hum
%
Delta-T
°C
Wind Press
QNH
hPa
Press
MSL
hPa
Rain
since 9 am
mm
Dir
 
Spd
km/h
Gust
km/h
Spd
kts
Gust
kts
24/11:30pm 29.8 32.5 20.6 57 6.1 W 7 11 4 6 1011.6 1011.6 0.0
24/11:00pm 30.1 32.3 19.5 53 6.9 W 7 9 4 5 1011.8 1011.8 0.0
24/10:30pm 30.6 31.8 19.9 52 7.0 NW 13 17 7 9 1011.7 1011.7 0.0
24/10:00pm 31.1 33.0 19.8 51 7.4 WNW 9 11 5 6 1011.2 1011.2 0.0
24/09:30pm 31.0 34.0 20.0 52 7.3 NNE 4 9 2 5 1010.8 1010.8 0.0
24/09:00pm 30.9 32.8 20.5 54 6.9 W 11 19 6 10 1010.9 1010.9 0.0
24/08:30pm 31.4 30.4 18.0 44 8.6 N 20 30 11 16 1010.3 1010.3 0.0
24/08:00pm 31.3 31.0 20.3 52 7.3 N 22 30 12 16 1010.0 1010.0 0.0
24/07:30pm 32.1 31.8 18.3 44 8.9 NNE 17 28 9 15 1009.8 1009.8 0.0
24/07:00pm 31.8 29.9 15.7 37 10.0 ENE 20 26 11 14 1009.8 1009.8 0.0
24/06:39pm 32.6 28.4 18.0 41 9.4 ENE 37 46 20 25 1009.4 1009.4 0.0
24/06:30pm 33.4 31.6 18.7 41 9.6 NNE 26 35 14 19 1009.0 1009.0 0.0
24/06:00pm 34.5 32.0 18.1 37 10.6 N 28 35 15 19 1008.5 1008.5 0.0
24/05:30pm 36.8 35.6 17.4 32 12.6 N 20 28 11 15 1008.3 1008.3 0.0
24/05:00pm 36.3 33.8 17.0 32 12.4 NNE 26 35 14 19 1008.2 1008.2 0.0
24/04:30pm 37.1 35.0 17.1 30 12.9 NNE 24 35 13 19 1008.4 1008.4 0.0
24/04:00pm 35.7 32.2 17.4 33 11.8 NNE 32 44 17 24 1008.7 1008.7 0.0
24/03:30pm 37.9 35.8 16.2 27 13.9 N 22 35 12 19 1008.9 1008.9 0.0
24/03:00pm 37.5 36.7 17.0 30 13.2 NNW 17 28 9 15 1009.0 1009.0 0.0
24/02:30pm 37.0 35.4 16.5 29 13.1 N 20 30 11 16 1009.3 1009.3 0.0
24/02:00pm 37.4 37.1 17.4 30 13.0 NW 15 24 8 13 1009.7 1009.7 0.0
24/01:30pm 36.9 36.3 17.5 32 12.6 NE 17 24 9 13 1010.2 1010.2 0.0
24/01:00pm 36.8 37.7 18.4 34 12.1 E 11 15 6 8 1010.7 1010.7 0.0
24/12:30pm 36.0 36.2 19.4 37 11.0 N 17 24 9 13 1011.3 1011.3 0.0
24/12:00pm 36.1 37.1 20.3 39 10.6 NNE 15 26 8 14 1011.9 1011.9 0.0
24/11:30am 35.1 35.5 19.9 41 10.1 NNE 17 26 9 14 1012.3 1012.3 0.0
24/11:00am 35.1 37.2 20.2 41 10.0 ENE 9 19 5 10 1012.7 1012.7 0.0
24/10:30am 33.4 34.6 19.8 44 9.0 NNE 13 17 7 9 1013.1 1013.1 0.0
24/10:00am 33.3 34.7 20.4 46 8.6 NNE 13 20 7 11 1013.2 1013.2 0.0
24/09:30am 32.1 33.2 20.4 50 7.8 N 15 22 8 12 1013.4 1013.4 0.0
24/09:00am 31.7 33.1 20.3 50 7.6 N 13 19 7 10 1013.4 1013.4 0.0
24/08:30am 30.3 32.7 20.8 56 6.3 ENE 9 13 5 7 1013.5 1013.5 0.0
24/08:00am 28.3 28.4 21.1 65 4.8 E 22 33 12 18 1013.3 1013.3 0.0
24/07:43am 27.8 26.6 20.9 66 4.6 E 28 44 15 24 1012.8 1012.8 0.0
24/07:30am 27.8 32.0 20.9 66 4.6 CALM 0 0 0 0 1011.7 1011.7 0.0
24/07:00am 25.2 27.6 19.6 71 3.6 ESE 6 6 3 3 1011.5 1011.5 0.0
24/06:30am 24.8 27.9 18.7 69 3.9 CALM 0 0 0 0 1011.3 1011.3 0.0
24/06:00am 25.1 28.9 20.1 74 3.2 CALM 0 6 0 3 1011.1 1011.1 0.0
24/05:30am 25.2 27.6 20.0 73 3.4 ESE 7 9 4 5 1010.9 1010.9 0.0
24/05:00am 25.6 28.1 20.2 72 3.5 E 7 9 4 5 1010.8 1010.8 0.0
24/04:30am 26.3 28.4 20.2 69 4.0 E 9 11 5 6 1010.7 1010.7 0.0
24/04:00am 26.7 28.6 18.6 61 5.2 E 6 11 3 6 1010.6 1010.6 0.0
24/03:30am 28.5 29.9 18.6 55 6.4 WNW 9 13 5 7 1010.7 1010.7 0.0
24/03:00am 28.8 30.2 18.6 54 6.6 NW 9 11 5 6 1010.8 1010.8 0.0
24/02:30am 29.3 30.3 18.7 52 6.8 WNW 11 15 6 8 1011.0 1011.0 0.0
24/02:00am 29.4 30.0 18.5 52 7.0 WNW 13 17 7 9 1011.3 1011.3 0.0
24/01:30am 29.3 30.6 19.3 55 6.5 WNW 11 17 6 9 1011.4 1011.4 0.0
24/01:00am 29.7 30.3 19.4 54 6.7 W 15 17 8 9 1011.6 1011.6 0.0
24/12:30am 29.1 30.7 19.1 54 6.5 W 9 13 5 7 1011.8 1011.8 0.0
24/12:00am 29.7 30.6 20.0 56 6.4 W 15 15 8 8 1012.0 1012.0 0.0
 
Date/Time
CST
Temp
°C
App
Temp
°C
Dew
Point
Rel
Hum
%
Delta-T
°C
Wind Press
QNH
hPa
Press
MSL
hPa
Rain
since 9 am
mm
Dir
 
Spd
km/h
Gust
km/h
Spd
kts
Gust
kts
23/11:30pm 29.8 30.9 18.9 52 7.1 W 11 11 6 6 1012.3 1012.3 0.0
23/11:00pm 29.9 31.3 18.7 51 7.2 NW 9 13 5 7 1012.4 1012.4 0.0
23/10:30pm 30.6 30.9 18.7 49 7.7 NW 15 17 8 9 1012.2 1012.2 0.0
23/10:00pm 30.6 32.5 19.0 50 7.5 NNW 7 13 4 7 1012.0 1012.0 0.0
23/09:30pm 30.8 33.1 19.8 52 7.2 NW 7 9 4 5 1011.4 1011.4 0.0
23/09:00pm 31.2 32.9 18.5 46 8.2 N 7 11 4 6 1010.9 1010.9 0.0
23/08:30pm 31.1 29.1 19.1 48 7.8 N 28 35 15 19 1010.4 1010.4 0.0
23/08:00pm 32.0 29.8 17.8 42 9.1 N 26 35 14 19 1010.0 1010.0 0.0
23/07:30pm 31.9 30.0 18.5 45 8.7 N 26 35 14 19 1009.7 1009.7 0.0
23/07:00pm 32.6 29.7 18.0 41 9.4 N 30 39 16 21 1009.5 1009.5 0.0
23/06:30pm 34.0 31.5 17.2 36 10.8 N 26 37 14 20 1009.2 1009.2 0.0
23/06:00pm 35.7 32.7 14.9 29 13.0 N 24 32 13 17 1008.8 1008.8 0.0
23/05:30pm 36.6 33.9 15.7 29 13.2 N 24 33 13 18 1008.5 1008.5 0.0
23/05:00pm 36.9 34.1 15.4 28 13.5 NNE 24 33 13 18 1008.4 1008.4 0.0
23/04:30pm 37.5 34.3 16.4 28 13.5 N 28 41 15 22 1008.5 1008.5 0.0
23/04:00pm 37.5 34.0 17.5 30 13.0 NNW 32 41 17 22 1008.2 1008.2 0.0
23/03:30pm 38.5 35.5 16.7 27 14.1 NNW 28 46 15 25 1008.7 1008.7 0.0
23/03:26pm 37.7 34.6 16.6 28 13.5 NNW 28 46 15 25 1008.7 1008.7 0.0
23/03:00pm 37.3 35.2 16.3 29 13.4 NW 22 30 12 16 1008.9 1008.9 0.0
23/02:30pm 38.4 36.9 16.7 28 14.0 N 20 30 11 16 1009.3 1009.3 0.0
23/02:00pm 38.3 36.9 17.1 28 13.7 NNW 20 32 11 17 1009.7 1009.7 0.0
23/01:30pm 36.2 35.9 17.4 33 12.2 N 15 24 8 13 1010.4 1010.4 0.0
23/01:00pm 36.2 35.7 16.9 32 12.4 NW 15 26 8 14 1011.0 1011.0 0.0
23/12:30pm 36.0 37.1 18.1 34 11.7 N 9 20 5 11 1011.5 1011.5 0.0
23/12:00pm 36.2 35.7 18.7 35 11.5 N 19 30 10 16 1011.9 1011.9 0.0
23/11:30am 35.3 37.0 18.4 37 11.0 NE 7 13 4 7 1012.4 1012.4 0.0
23/11:00am 33.9 35.4 18.8 41 9.9 NE 9 15 5 8 1012.9 1012.9 0.0
23/10:30am 33.5 35.3 19.6 44 9.2 N 9 17 5 9 1013.4 1013.4 0.0
23/10:00am 32.9 35.0 20.1 47 8.5 N 9 17 5 9 1013.7 1013.7 0.0
23/09:30am 31.9 32.9 19.5 47 8.1 NE 13 19 7 10 1013.9 1013.9 0.0
23/09:00am 31.3 31.9 20.3 52 7.3 NE 17 24 9 13 1013.7 1013.7 0.0
23/08:30am 30.1 29.8 20.4 56 6.4 ENE 22 30 12 16 1013.7 1013.7 0.0
23/08:00am 30.5 30.6 20.4 54 6.7 E 20 33 11 18 1013.3 1013.3 0.0
23/07:30am 28.3 31.8 19.5 59 5.7 CALM 0 0 0 0 1012.0 1012.0 0.0
23/07:00am 25.7 28.2 19.1 67 4.2 W 4 7 2 4 1011.9 1011.9 0.0
23/06:30am 25.0 28.2 18.9 69 3.9 CALM 0 0 0 0 1011.4 1011.4 0.0
23/06:00am 24.9 27.3 17.9 65 4.4 W 2 9 1 5 1011.0 1011.0 0.0
23/05:30am 24.7 27.6 18.2 67 4.1 CALM 0 0 0 0 1010.9 1010.9 0.0
23/05:00am 24.7 26.2 17.7 65 4.4 SSW 6 7 3 4 1010.8 1010.8 0.0
23/04:30am 25.0 27.2 19.1 70 3.8 NW 6 7 3 4 1010.4 1010.4 0.0
23/04:00am 24.8 27.5 19.4 72 3.5 E 4 11 2 6 1010.5 1010.5 0.0
23/03:30am 25.4 27.5 20.2 73 3.4 ESE 9 13 5 7 1010.6 1010.6 0.0
23/03:00am 25.4 27.2 19.5 70 3.8 E 9 11 5 6 1010.6 1010.6 0.0
23/02:30am 26.1 27.9 19.5 67 4.3 E 9 11 5 6 1010.9 1010.9 0.0
23/02:00am 26.2 28.5 17.6 59 5.4 E 2 13 1 7 1011.1 1011.1 0.0
23/01:30am 25.6 27.9 16.7 58 5.5 CALM 0 0 0 0 1011.4 1011.4 0.0
23/01:00am 26.5 28.0 16.7 55 6.1 WNW 4 6 2 3 1011.5 1011.5 0.0
23/12:30am 26.9 29.2 18.5 60 5.4 NE 4 7 2 4 1011.7 1011.7 0.0
23/12:00am 27.5 28.9 17.9 55 6.1 SE 7 11 4 6 1012.0 1012.0 0.0
 
Date/Time
CST
Temp
°C
App
Temp
°C
Dew
Point
Rel
Hum
%
Delta-T
°C
Wind Press
QNH
hPa
Press
MSL
hPa
Rain
since 9 am
mm
Dir
 
Spd
km/h
Gust
km/h
Spd
kts
Gust
kts
22/11:30pm 28.1 28.9 18.2 55 6.3 E 11 15 6 8 1012.0 1012.0 0.0
22/11:00pm 28.7 29.2 16.6 48 7.5 ENE 9 11 5 6 1011.9 1011.9 0.0
22/10:30pm 30.8 31.2 16.4 42 9.0 WNW 9 11 5 6 1011.9 1011.9 0.0
22/10:00pm 31.4 31.8 15.4 38 9.9 N 7 15 4 8 1011.8 1011.8 0.0
22/09:30pm 30.8 31.0 16.8 43 8.8 SSW 11 15 6 8 1011.4 1011.4 0.0
22/09:00pm 31.8 30.9 17.7 43 9.0 N 19 24 10 13 1011.1 1011.1 0.0
22/08:30pm 31.9 30.1 17.8 43 9.0 N 24 35 13 19 1010.7 1010.7 0.0
22/08:00pm 32.1 30.2 17.6 42 9.3 N 24 33 13 18 1010.5 1010.5 0.0
22/07:30pm 32.4 30.1 17.5 41 9.5 N 26 35 14 19 1010.1 1010.1 0.0
22/07:00pm 32.8 30.2 17.8 40 9.6 N 28 41 15 22 1009.8 1009.8 0.0
22/06:30pm 33.5 30.8 17.6 38 10.2 N 28 35 15 19 1009.5 1009.5 0.0
22/06:00pm 34.5 31.3 16.4 34 11.5 N 28 39 15 21 1009.3 1009.3 0.0
22/05:30pm 35.6 32.1 16.4 32 12.2 N 30 39 16 21 1009.1 1009.1 0.0
22/05:00pm 36.6 33.6 16.7 30 12.8 N 28 39 15 21 1009.0 1009.0 0.0
22/04:30pm 36.8 34.8 16.4 30 13.0 NNW 22 39 12 21 1009.0 1009.0 0.0
22/04:00pm 37.2 34.0 16.2 29 13.4 NNW 28 41 15 22 1008.9 1008.9 0.0
22/03:30pm 38.1 35.5 15.8 26 14.2 N 24 33 13 18 1009.1 1009.1 0.0
22/03:00pm 38.6 38.6 16.2 26 14.3 WNW 11 24 6 13 1009.3 1009.3 0.0

Other Formats:

Comma delimited format used in spreadsheet applications
http://www.bom.gov.au/fwo/IDD60801/IDD60801.95214.axf

JavaScript Object Notation format (JSON) in row-major order
http://www.bom.gov.au/fwo/IDD60801/IDD60801.95214.json